createdAt,value
2022-11-14T00:01:13.381Z,11.00
2022-11-14T00:03:40.767Z,11.00
2022-11-14T00:06:08.531Z,11.00
2022-11-14T00:08:36.321Z,11.00
2022-11-14T00:11:03.989Z,11.00
2022-11-14T00:13:31.387Z,11.00
2022-11-14T00:15:58.805Z,11.00
2022-11-14T00:18:26.344Z,10.90
2022-11-14T00:20:54.248Z,10.90
2022-11-14T00:23:22.377Z,10.90
2022-11-14T00:25:49.765Z,10.90
2022-11-14T00:28:17.172Z,10.90
2022-11-14T00:30:50.393Z,10.90
2022-11-14T00:33:20.878Z,10.90
2022-11-14T00:35:55.801Z,10.80
2022-11-14T00:38:23.983Z,10.80
2022-11-14T00:40:51.466Z,10.80
2022-11-14T00:43:18.900Z,10.80
2022-11-14T00:45:47.072Z,10.80
2022-11-14T00:48:15.153Z,10.70
2022-11-14T00:50:43.024Z,10.70
2022-11-14T00:53:10.750Z,10.70
2022-11-14T00:55:38.290Z,10.70
2022-11-14T00:58:06.132Z,10.60
2022-11-14T01:00:33.881Z,10.60
2022-11-14T01:03:01.445Z,10.60
2022-11-14T01:05:28.923Z,10.60
2022-11-14T01:07:56.315Z,10.60
2022-11-14T01:10:23.914Z,10.60
2022-11-14T01:12:51.276Z,10.60
2022-11-14T01:15:18.646Z,10.60
2022-11-14T01:17:46.004Z,10.50
2022-11-14T01:20:13.390Z,10.60
2022-11-14T01:22:40.711Z,10.50
2022-11-14T01:25:08.506Z,10.50
2022-11-14T01:27:35.965Z,10.50
2022-11-14T01:30:04.167Z,10.50
2022-11-14T01:32:31.585Z,10.50
2022-11-14T01:34:58.928Z,10.60
2022-11-14T01:37:26.341Z,10.60
2022-11-14T01:39:53.686Z,10.60
2022-11-14T01:42:24.411Z,10.60
2022-11-14T01:44:54.539Z,10.70
2022-11-14T01:47:26.516Z,10.70
2022-11-14T01:49:57.626Z,10.70
2022-11-14T01:52:26.442Z,10.70
2022-11-14T01:54:57.552Z,10.70
2022-11-14T01:57:26.877Z,10.70
2022-11-14T01:59:57.060Z,10.70
2022-11-14T02:02:26.041Z,10.70
2022-11-14T02:05:06.518Z,10.70
2022-11-14T02:07:37.928Z,10.70
2022-11-14T02:10:15.414Z,10.70
2022-11-14T02:12:43.579Z,10.60
2022-11-14T02:15:11.406Z,10.70
2022-11-14T02:17:38.892Z,10.70
2022-11-14T02:20:12.467Z,10.70
2022-11-14T02:22:41.970Z,10.70
2022-11-14T02:25:12.454Z,10.70
2022-11-14T02:27:41.618Z,10.70
2022-11-14T02:30:13.748Z,10.70
2022-11-14T02:35:28.580Z,10.70
2022-11-14T02:37:56.110Z,10.70
2022-11-14T02:40:23.511Z,10.70
2022-11-14T02:42:50.889Z,10.80
2022-11-14T02:45:19.524Z,10.80
2022-11-14T02:47:47.189Z,10.80
2022-11-14T02:50:14.922Z,10.70
2022-11-14T02:52:42.373Z,10.70
2022-11-14T02:55:10.489Z,10.80
2022-11-14T02:57:37.829Z,10.80
2022-11-14T03:00:11.632Z,10.80
2022-11-14T03:02:42.121Z,10.80
2022-11-14T03:05:09.734Z,10.80
2022-11-14T03:07:37.136Z,10.80
2022-11-14T03:10:05.311Z,10.80
2022-11-14T03:12:33.055Z,10.80
2022-11-14T03:15:00.360Z,10.80
2022-11-14T03:17:31.763Z,10.80
2022-11-14T03:19:59.359Z,10.80
2022-11-14T03:22:27.533Z,10.80
2022-11-14T03:24:54.857Z,10.70
2022-11-14T03:27:22.335Z,10.80
2022-11-14T03:29:49.643Z,10.80
2022-11-14T03:32:17.095Z,10.80
2022-11-14T03:34:44.486Z,10.80
2022-11-14T03:37:11.985Z,10.80
2022-11-14T03:39:39.393Z,10.80
2022-11-14T03:42:06.848Z,10.80
2022-11-14T03:44:34.321Z,10.80
2022-11-14T03:47:01.733Z,10.80
2022-11-14T03:49:29.161Z,10.80
2022-11-14T03:51:56.522Z,10.70
2022-11-14T03:54:23.931Z,10.80
2022-11-14T03:56:51.225Z,10.80
2022-11-14T03:59:18.597Z,10.80
2022-11-14T04:01:46.079Z,10.80
2022-11-14T04:04:13.756Z,10.70
2022-11-14T04:06:41.233Z,10.70
2022-11-14T04:09:10.365Z,10.70
2022-11-14T04:11:38.131Z,10.70
2022-11-14T04:14:05.637Z,10.70
2022-11-14T04:16:33.102Z,10.70
2022-11-14T04:19:00.479Z,10.70
2022-11-14T04:21:27.889Z,10.70
2022-11-14T04:23:55.306Z,10.70
2022-11-14T04:26:22.758Z,10.60
2022-11-14T04:28:50.178Z,10.60
2022-11-14T04:31:17.534Z,10.60
2022-11-14T04:33:44.901Z,10.70
2022-11-14T04:36:12.329Z,10.70
2022-11-14T04:38:39.827Z,10.70
2022-11-14T04:41:07.328Z,10.70
2022-11-14T04:43:34.828Z,10.70
2022-11-14T04:46:02.191Z,10.60
2022-11-14T04:48:30.179Z,10.70
2022-11-14T04:50:57.836Z,10.70
2022-11-14T04:53:25.225Z,10.70
2022-11-14T04:55:52.574Z,10.70
2022-11-14T04:58:19.888Z,10.70
2022-11-14T05:00:47.454Z,10.70
2022-11-14T05:03:14.809Z,10.70
2022-11-14T05:05:42.495Z,10.70
2022-11-14T05:08:09.958Z,10.70
2022-11-14T05:10:37.382Z,10.70
2022-11-14T05:13:04.724Z,10.70
2022-11-14T05:15:32.127Z,10.70
2022-11-14T05:17:59.515Z,10.70
2022-11-14T05:20:26.879Z,10.70
2022-11-14T05:22:56.308Z,10.70
2022-11-14T05:25:23.821Z,10.60
2022-11-14T05:27:51.220Z,10.60
2022-11-14T05:30:18.865Z,10.70
2022-11-14T05:32:46.356Z,10.70
2022-11-14T05:35:13.800Z,10.70
2022-11-14T05:37:41.240Z,10.70
2022-11-14T05:40:09.229Z,10.70
2022-11-14T05:42:36.567Z,10.70
2022-11-14T05:45:04.217Z,10.70
2022-11-14T05:47:31.580Z,10.70
2022-11-14T05:49:58.882Z,10.60
2022-11-14T05:52:26.257Z,10.60
2022-11-14T05:54:53.577Z,10.60
2022-11-14T05:57:20.940Z,10.60
2022-11-14T05:59:48.325Z,10.60
2022-11-14T06:02:16.116Z,10.70
2022-11-14T06:04:43.518Z,10.70
2022-11-14T06:07:10.920Z,10.70
2022-11-14T06:09:38.485Z,10.70
2022-11-14T06:12:07.871Z,10.70
2022-11-14T06:14:35.243Z,10.70
2022-11-14T06:17:02.571Z,10.70
2022-11-14T06:19:29.903Z,10.70
2022-11-14T06:21:57.234Z,10.70
2022-11-14T06:24:24.590Z,10.80
2022-11-14T06:26:51.919Z,10.80
2022-11-14T06:29:19.239Z,10.70
2022-11-14T06:31:46.601Z,10.60
2022-11-14T06:34:14.016Z,10.60
2022-11-14T06:36:41.381Z,10.60
2022-11-14T06:39:08.806Z,10.60
2022-11-14T06:41:36.187Z,10.70
2022-11-14T06:44:03.604Z,10.70
2022-11-14T06:46:30.962Z,10.70
2022-11-14T06:48:58.351Z,10.70
2022-11-14T06:51:25.926Z,10.70
2022-11-14T06:53:53.325Z,10.70
2022-11-14T06:56:20.689Z,10.70
2022-11-14T06:58:49.575Z,10.70
2022-11-14T07:01:16.879Z,10.70
2022-11-14T07:03:45.075Z,10.70
2022-11-14T07:06:15.555Z,10.70
2022-11-14T07:08:42.946Z,10.60
2022-11-14T07:11:22.830Z,10.60
2022-11-14T07:13:52.133Z,10.60
2022-11-14T07:16:20.720Z,10.50
2022-11-14T07:18:48.041Z,10.50
2022-11-14T07:21:15.457Z,10.50
2022-11-14T07:23:43.425Z,10.50
2022-11-14T07:26:12.022Z,10.50
2022-11-14T07:28:41.933Z,10.60
2022-11-14T07:31:14.308Z,10.60
2022-11-14T07:33:42.823Z,10.60
2022-11-14T07:36:11.023Z,10.60
2022-11-14T07:38:39.288Z,10.60
2022-11-14T07:41:12.242Z,10.60
2022-11-14T07:43:40.770Z,10.60
2022-11-14T07:46:13.368Z,10.60
2022-11-14T07:48:40.921Z,10.60
2022-11-14T07:51:16.752Z,10.60
2022-11-14T07:53:44.506Z,10.60
2022-11-14T07:56:13.022Z,10.60
2022-11-14T07:58:41.769Z,10.60
2022-11-14T08:01:11.544Z,10.60
2022-11-14T08:03:45.151Z,10.60
2022-11-14T08:06:15.351Z,10.50
2022-11-14T08:08:42.883Z,10.60
2022-11-14T08:11:10.591Z,10.60
2022-11-14T08:13:37.998Z,10.60
2022-11-14T08:16:12.287Z,10.70
2022-11-14T08:18:40.748Z,10.60
2022-11-14T08:21:08.303Z,10.50
2022-11-14T08:23:35.871Z,10.50
2022-11-14T08:26:03.256Z,10.50
2022-11-14T08:28:30.997Z,10.50
2022-11-14T08:31:03.288Z,10.60
2022-11-14T08:33:31.203Z,10.60
2022-11-14T08:36:05.713Z,10.70
2022-11-14T08:38:34.376Z,10.80
2022-11-14T08:41:03.059Z,10.90
2022-11-14T08:43:32.112Z,10.80
2022-11-14T08:46:01.795Z,10.80
2022-11-14T08:48:30.922Z,10.80
2022-11-14T08:51:03.258Z,10.80
2022-11-14T08:53:31.074Z,10.90
2022-11-14T08:55:58.544Z,10.90
2022-11-14T08:58:32.157Z,10.80
2022-11-14T09:01:01.710Z,10.80
2022-11-14T09:03:29.192Z,10.90
2022-11-14T09:05:56.554Z,10.90
2022-11-14T09:08:24.351Z,10.90
2022-11-14T09:10:51.790Z,11.00
2022-11-14T09:13:19.510Z,11.00
2022-11-14T09:15:47.023Z,11.00
2022-11-14T09:18:15.310Z,11.10
2022-11-14T09:20:42.831Z,11.10
2022-11-14T09:23:10.729Z,11.10
2022-11-14T09:25:38.612Z,11.20
2022-11-14T09:28:07.258Z,11.30
2022-11-14T09:30:36.810Z,11.30
2022-11-14T09:33:11.228Z,11.30
2022-11-14T09:35:39.239Z,11.30
2022-11-14T09:38:09.500Z,11.30
2022-11-14T09:41:06.461Z,11.30
2022-11-14T09:44:20.053Z,11.30
2022-11-14T09:46:56.101Z,11.30
2022-11-14T09:49:39.530Z,11.30
2022-11-14T09:52:33.055Z,11.30
2022-11-14T09:55:09.513Z,11.30
2022-11-14T09:57:36.955Z,11.40
2022-11-14T10:00:14.109Z,11.40
2022-11-14T10:02:52.293Z,11.50
2022-11-14T10:05:41.252Z,11.50
2022-11-14T10:08:26.981Z,11.50
2022-11-14T10:11:29.425Z,11.50
2022-11-14T10:14:17.009Z,11.50
2022-11-14T10:17:12.531Z,11.60
2022-11-14T10:19:57.789Z,11.60
2022-11-14T10:22:43.526Z,11.60
2022-11-14T10:25:20.312Z,11.60
2022-11-14T10:28:06.998Z,11.50
2022-11-14T10:30:49.791Z,11.60
2022-11-14T10:33:51.040Z,11.50
2022-11-14T10:36:18.290Z,11.60
2022-11-14T10:38:54.129Z,11.70
2022-11-14T10:41:49.778Z,11.70
2022-11-14T10:44:20.850Z,11.70
2022-11-14T10:46:53.958Z,11.70
2022-11-14T10:49:23.903Z,11.70
2022-11-14T10:52:02.935Z,11.70
2022-11-14T10:54:48.213Z,11.70
2022-11-14T10:57:20.730Z,11.70
2022-11-14T10:59:48.736Z,11.70
2022-11-14T11:02:16.293Z,11.70
2022-11-14T11:04:45.190Z,11.80
2022-11-14T11:07:32.616Z,11.80
2022-11-14T11:10:19.854Z,11.90
2022-11-14T11:12:50.387Z,11.80
2022-11-14T11:15:32.734Z,11.90
2022-11-14T11:18:24.289Z,11.90
2022-11-14T11:21:10.017Z,11.90
2022-11-14T11:23:57.506Z,11.90
2022-11-14T11:26:30.806Z,12.00
2022-11-14T11:29:18.329Z,12.10
2022-11-14T11:31:58.233Z,12.20
2022-11-14T11:34:28.161Z,12.20
2022-11-14T11:40:06.978Z,12.30
2022-11-14T11:43:31.829Z,12.30
2022-11-14T11:45:29.047Z,12.40
2022-11-14T11:48:06.675Z,12.40
2022-11-14T11:50:34.217Z,12.40
2022-11-14T11:53:27.738Z,12.50
2022-11-14T11:56:00.998Z,12.60
2022-11-14T11:58:55.121Z,12.60
2022-11-14T12:01:22.574Z,12.60
2022-11-14T12:03:52.444Z,12.60
2022-11-14T12:06:24.953Z,12.50
2022-11-14T12:09:18.095Z,12.40
2022-11-14T12:11:57.662Z,12.40
2022-11-14T12:14:46.672Z,12.40
2022-11-14T12:17:28.782Z,12.40
2022-11-14T12:20:19.945Z,12.40
2022-11-14T12:22:57.433Z,12.40
2022-11-14T12:25:56.086Z,12.50
2022-11-14T12:28:35.495Z,12.50
2022-11-14T12:31:06.513Z,12.50
2022-11-14T12:33:38.912Z,12.60
2022-11-14T12:36:09.972Z,12.60
2022-11-14T12:38:52.563Z,12.70
2022-11-14T12:41:27.026Z,12.70
2022-11-14T12:44:29.220Z,12.70
2022-11-14T12:47:05.701Z,12.80
2022-11-14T12:49:39.376Z,12.80
2022-11-14T12:52:44.893Z,12.80
2022-11-14T12:55:24.328Z,12.80
2022-11-14T12:58:18.917Z,12.80
2022-11-14T13:00:46.280Z,12.80
2022-11-14T13:03:48.079Z,12.80
2022-11-14T13:06:25.175Z,12.70
2022-11-14T13:09:29.929Z,12.70
2022-11-14T13:12:16.176Z,12.80
2022-11-14T13:15:16.299Z,12.80
2022-11-14T13:18:02.289Z,12.80
2022-11-14T13:20:52.123Z,12.90
2022-11-14T13:23:25.545Z,13.10
2022-11-14T13:26:11.103Z,13.20
2022-11-14T13:28:38.465Z,13.40
2022-11-14T13:31:15.889Z,13.50
2022-11-14T13:33:45.464Z,13.50
2022-11-14T13:36:39.999Z,13.60
2022-11-14T13:39:10.130Z,13.60
2022-11-14T13:42:04.949Z,13.60
2022-11-14T13:45:00.054Z,13.60
2022-11-14T13:48:24.881Z,13.60
2022-11-14T13:51:15.291Z,13.50
2022-11-14T13:53:46.882Z,13.50
2022-11-14T13:57:02.585Z,13.40
2022-11-14T13:59:46.683Z,13.50
2022-11-14T14:02:31.059Z,13.50
2022-11-14T14:05:27.682Z,13.50
2022-11-14T14:08:10.901Z,13.40
2022-11-14T14:10:47.314Z,13.40
2022-11-14T14:13:43.527Z,13.40
2022-11-14T14:16:33.653Z,13.50
2022-11-14T14:19:43.205Z,13.50
2022-11-14T14:22:19.137Z,13.50
2022-11-14T14:25:01.180Z,13.50
2022-11-14T14:27:36.938Z,13.40
2022-11-14T14:30:13.931Z,13.50
2022-11-14T14:32:41.476Z,13.50
2022-11-14T14:35:27.960Z,13.50
2022-11-14T14:37:56.850Z,13.50
2022-11-14T14:40:28.714Z,13.40
2022-11-14T14:42:59.711Z,13.40
2022-11-14T14:45:28.150Z,13.30
2022-11-14T14:48:14.504Z,13.30
2022-11-14T14:50:49.124Z,13.20
2022-11-14T14:53:25.751Z,13.20
2022-11-14T14:55:59.107Z,13.20
2022-11-14T14:58:31.729Z,13.10
2022-11-14T15:01:04.182Z,13.10
2022-11-14T15:03:39.779Z,13.10
2022-11-14T15:06:33.032Z,13.10
2022-11-14T15:09:08.671Z,13.00
2022-11-14T15:11:39.563Z,13.00
2022-11-14T15:14:10.759Z,12.90
2022-11-14T15:16:38.571Z,13.00
2022-11-14T15:19:06.499Z,12.90
2022-11-14T15:21:34.052Z,12.90
2022-11-14T15:24:03.051Z,12.90
2022-11-14T15:26:31.716Z,12.90
2022-11-14T15:29:18.726Z,12.90
2022-11-14T15:31:52.325Z,12.90
2022-11-14T15:34:40.553Z,12.90
2022-11-14T15:37:10.858Z,12.90
2022-11-14T15:39:38.485Z,12.90
2022-11-14T15:42:24.849Z,12.80
2022-11-14T15:44:52.482Z,12.80
2022-11-14T15:47:25.704Z,12.90
2022-11-14T15:49:57.364Z,12.90
2022-11-14T15:52:36.356Z,12.90
2022-11-14T15:55:09.390Z,12.90
2022-11-14T15:57:37.628Z,12.90
2022-11-14T16:00:05.694Z,12.90
2022-11-14T16:02:34.703Z,12.80
2022-11-14T16:05:04.212Z,12.80
2022-11-14T16:07:31.679Z,12.70
2022-11-14T16:09:59.050Z,12.70
2022-11-14T16:12:26.486Z,12.60
2022-11-14T16:14:53.847Z,12.60
2022-11-14T16:17:21.164Z,12.60
2022-11-14T16:19:48.545Z,12.60
2022-11-14T16:22:17.799Z,12.60
2022-11-14T16:24:45.159Z,12.60
2022-11-14T16:27:12.698Z,12.60
2022-11-14T16:29:40.344Z,12.60
2022-11-14T16:32:10.987Z,12.70
2022-11-14T16:34:38.367Z,12.60
2022-11-14T16:37:06.026Z,12.60
2022-11-14T16:39:33.403Z,12.60
2022-11-14T16:42:04.162Z,12.60
2022-11-14T16:44:37.233Z,12.70
2022-11-14T16:47:08.541Z,12.70
2022-11-14T16:49:35.967Z,12.70
2022-11-14T16:52:07.126Z,12.70
2022-11-14T16:54:34.808Z,12.70
2022-11-14T16:57:02.189Z,12.70
2022-11-14T16:59:29.879Z,12.70
2022-11-14T17:01:57.233Z,12.70
2022-11-14T17:04:24.696Z,12.70
2022-11-14T17:06:52.112Z,12.70
2022-11-14T17:09:21.411Z,12.70
2022-11-14T17:11:48.806Z,12.70
2022-11-14T17:14:17.387Z,12.70
2022-11-14T17:16:46.564Z,12.70
2022-11-14T17:19:14.233Z,12.70
2022-11-14T17:21:41.625Z,12.70
2022-11-14T17:24:09.222Z,12.70
2022-11-14T17:26:36.837Z,12.70
2022-11-14T17:29:04.742Z,12.80
2022-11-14T17:31:37.582Z,12.80
2022-11-14T17:34:09.314Z,12.80
2022-11-14T17:36:36.727Z,12.80
2022-11-14T17:39:04.290Z,12.80
2022-11-14T17:41:32.496Z,12.80
2022-11-14T17:44:02.545Z,12.80
2022-11-14T17:46:30.913Z,12.90
2022-11-14T17:48:59.070Z,12.90
2022-11-14T17:51:26.755Z,12.80
2022-11-14T17:53:54.177Z,12.90
2022-11-14T17:56:24.602Z,12.90
2022-11-14T17:58:53.330Z,12.90
2022-11-14T18:01:24.174Z,12.90
2022-11-14T18:03:51.808Z,12.90
2022-11-14T18:06:20.752Z,13.00
2022-11-14T18:08:48.577Z,13.00
2022-11-14T18:11:17.454Z,13.00
2022-11-14T18:13:44.805Z,12.90
2022-11-14T18:16:19.609Z,12.90
2022-11-14T18:18:47.374Z,12.90
2022-11-14T18:21:17.958Z,12.90
2022-11-14T18:23:54.208Z,12.90
2022-11-14T18:26:27.597Z,12.90
2022-11-14T18:29:00.778Z,13.00
2022-11-14T18:31:37.334Z,12.90
2022-11-14T18:34:05.355Z,12.90
2022-11-14T18:36:32.793Z,13.20
2022-11-14T18:39:00.134Z,13.20
2022-11-14T18:41:27.536Z,13.10
2022-11-14T18:43:55.803Z,13.10
2022-11-14T18:46:25.230Z,13.00
2022-11-14T18:48:55.775Z,13.10
2022-11-14T18:51:25.722Z,13.10
2022-11-14T18:53:55.296Z,13.10
2022-11-14T18:56:25.421Z,13.10
2022-11-14T18:58:55.448Z,13.10
2022-11-14T19:01:26.345Z,13.10
2022-11-14T19:04:02.068Z,13.20
2022-11-14T19:06:34.710Z,13.20
2022-11-14T19:09:11.177Z,13.30
2022-11-14T19:11:57.994Z,13.30
2022-11-14T19:14:25.440Z,13.30
2022-11-14T19:16:53.021Z,13.40
2022-11-14T19:19:20.474Z,13.40
2022-11-14T19:21:51.395Z,13.40
2022-11-14T19:24:19.234Z,13.50
2022-11-14T19:26:46.865Z,13.50
2022-11-14T19:29:14.314Z,13.50
2022-11-14T19:31:42.838Z,13.50
2022-11-14T19:34:10.673Z,13.50
2022-11-14T19:36:59.016Z,13.50
2022-11-14T19:39:26.440Z,13.50
2022-11-14T19:41:53.840Z,13.50
2022-11-14T19:44:21.221Z,13.50
2022-11-14T19:46:48.586Z,13.50
2022-11-14T19:49:16.543Z,13.40
2022-11-14T19:51:43.935Z,13.40
2022-11-14T19:54:11.749Z,13.40
2022-11-14T19:56:39.094Z,13.30
2022-11-14T20:01:46.250Z,13.30
2022-11-14T20:04:13.775Z,13.30
2022-11-14T20:06:41.718Z,13.30
2022-11-14T20:09:10.395Z,13.30
2022-11-14T20:11:38.131Z,13.20
2022-11-14T20:14:06.128Z,13.20
2022-11-14T20:16:36.431Z,13.10
2022-11-14T20:19:04.375Z,13.10
2022-11-14T20:21:33.999Z,13.10
2022-11-14T20:24:01.846Z,13.10
2022-11-14T20:26:29.304Z,13.10
2022-11-14T20:28:56.869Z,13.10
2022-11-14T20:31:27.253Z,13.10
2022-11-14T20:33:55.748Z,13.00
2022-11-14T20:36:26.073Z,13.00
2022-11-14T20:38:54.229Z,13.00
2022-11-14T20:41:22.051Z,13.00
2022-11-14T20:43:49.472Z,13.00
2022-11-14T20:46:20.093Z,13.00
2022-11-14T20:48:48.418Z,13.00
2022-11-14T20:51:21.385Z,12.90
2022-11-14T20:53:50.318Z,13.00
2022-11-14T20:56:17.836Z,12.90
2022-11-14T20:58:47.494Z,12.90
2022-11-14T21:01:16.354Z,12.90
2022-11-14T21:03:43.847Z,12.90
2022-11-14T21:06:13.657Z,12.80
2022-11-14T21:08:43.648Z,12.80
2022-11-14T21:11:18.070Z,12.80
2022-11-14T21:13:58.551Z,12.70
2022-11-14T21:16:39.486Z,12.70
2022-11-14T21:19:07.581Z,12.70
2022-11-14T21:21:36.713Z,12.70
2022-11-14T21:24:04.337Z,12.60
2022-11-14T21:26:38.357Z,12.60
2022-11-14T21:29:10.171Z,12.60
2022-11-14T21:31:41.540Z,12.60
2022-11-14T21:34:14.017Z,12.60
2022-11-14T21:36:46.387Z,12.60
2022-11-14T21:39:16.392Z,12.60
2022-11-14T21:41:45.346Z,12.60
2022-11-14T21:44:14.675Z,12.60
2022-11-14T21:46:43.393Z,12.50
2022-11-14T21:49:11.162Z,12.50
2022-11-14T21:51:38.520Z,12.50
2022-11-14T21:54:07.359Z,12.40
2022-11-14T21:56:37.195Z,12.50
2022-11-14T21:59:15.147Z,12.40
2022-11-14T22:02:04.555Z,12.40
2022-11-14T22:04:32.922Z,12.40
2022-11-14T22:07:03.393Z,12.40
2022-11-14T22:09:31.210Z,12.50
2022-11-14T22:11:59.377Z,12.50
2022-11-14T22:14:27.294Z,12.50
2022-11-14T22:16:54.742Z,12.40
2022-11-14T22:19:22.184Z,12.30
2022-11-14T22:21:49.662Z,12.20
2022-11-14T22:24:17.074Z,12.20
2022-11-14T22:26:44.447Z,12.10
2022-11-14T22:29:11.796Z,12.10
2022-11-14T22:31:39.173Z,12.10
2022-11-14T22:34:06.913Z,12.00
2022-11-14T22:36:34.366Z,12.00
2022-11-14T22:39:01.795Z,11.90
2022-11-14T22:41:33.450Z,11.90
2022-11-14T22:44:02.274Z,11.80
2022-11-14T22:46:30.020Z,11.80
2022-11-14T22:48:58.333Z,11.70
2022-11-14T22:51:27.201Z,11.70
2022-11-14T22:53:56.785Z,11.70
2022-11-14T22:56:28.844Z,11.70
2022-11-14T22:58:58.753Z,11.60
2022-11-14T23:01:31.598Z,11.60
2022-11-14T23:04:05.415Z,11.50
2022-11-14T23:06:34.090Z,11.60
2022-11-14T23:09:02.514Z,11.50
2022-11-14T23:11:31.168Z,11.50
2022-11-14T23:13:59.584Z,11.40
2022-11-14T23:16:29.123Z,11.40
2022-11-14T23:19:14.599Z,11.40
2022-11-14T23:21:41.380Z,11.30
2022-11-14T23:24:22.999Z,11.30
2022-11-14T23:26:50.349Z,11.30
2022-11-14T23:29:17.746Z,11.30
2022-11-14T23:31:45.223Z,11.20
2022-11-14T23:34:12.633Z,11.20
2022-11-14T23:36:40.102Z,11.10
2022-11-14T23:39:07.532Z,11.20
2022-11-14T23:41:34.913Z,11.10
2022-11-14T23:44:02.392Z,11.10
2022-11-14T23:46:29.775Z,11.10
2022-11-14T23:48:57.256Z,11.10
2022-11-14T23:51:24.845Z,11.00
2022-11-14T23:53:52.440Z,11.00
2022-11-14T23:56:20.055Z,11.00
2022-11-14T23:58:47.658Z,10.90
